Time;durP1;ratioP1;P1;durP2;ratioP2;P2;SDS_P1;SDS_P2;PMS_P1;PMS_P2;Temp;Humidity;BMP_temperature;BMP_pressure;BME280_temperature;BME280_humidity;BME280_pressure;Samples;Min_cycle;Max_cycle;Signal;HPM_P1;HPM_P2
2022/12/22 03:28:07;;;;;;;108.82;41.00;;;;;;;;;;5008901;28;98215;-73
2022/12/22 03:30:34;;;;;;;94.80;39.00;;;;;;;;;;5009047;28;99300;-73
2022/12/22 03:33:00;;;;;;;105.60;40.03;;;;;;;;;;5009196;28;99175;-73
2022/12/22 03:35:27;;;;;;;101.97;38.38;;;;;;;;;;5002956;28;98957;-73
2022/12/22 03:37:53;;;;;;;113.65;40.55;;;;;;;;;;4998581;28;98716;-73
2022/12/22 03:40:20;;;;;;;107.78;41.90;;;;;;;;;;5008228;28;100105;-73
2022/12/22 03:48:16;;;;;;;115.82;40.95;;;;;;;;;;5008406;28;98328;-73
2022/12/22 03:50:42;;;;;;;139.75;43.00;;;;;;;;;;5008554;28;99426;-72
2022/12/22 03:53:09;;;;;;;121.75;42.67;;;;;;;;;;4989397;28;99999;-73
2022/12/22 03:55:35;;;;;;;116.07;42.05;;;;;;;;;;4988033;28;98639;-72
2022/12/22 03:58:01;;;;;;;144.38;45.15;;;;;;;;;;4988827;28;99525;-73
2022/12/22 04:00:28;;;;;;;155.65;45.53;;;;;;;;;;4988321;27;99764;-72
2022/12/22 04:02:56;;;;;;;142.48;42.67;;;;;;;;;;4988842;28;98510;-74
2022/12/22 04:05:22;;;;;;;144.20;44.03;;;;;;;;;;4995419;28;99561;-74
2022/12/22 04:07:49;;;;;;;158.32;44.80;;;;;;;;;;5008587;28;98269;-74
2022/12/22 04:13:00;;;;;;;166.95;42.78;;;;;;;;;;4988492;28;100308;-73
2022/12/22 04:15:28;;;;;;;152.65;44.45;;;;;;;;;;4987895;28;98446;-73
2022/12/22 04:17:55;;;;;;;162.43;44.50;;;;;;;;;;4988627;28;99343;-73
2022/12/22 04:20:22;;;;;;;164.50;44.78;;;;;;;;;;4988216;28;100264;-73
2022/12/22 04:22:49;;;;;;;129.07;42.25;;;;;;;;;;4988540;28;98289;-73
2022/12/22 04:25:15;;;;;;;170.55;45.03;;;;;;;;;;4989007;28;99416;-73
2022/12/22 04:27:41;;;;;;;151.45;44.22;;;;;;;;;;4992479;27;99122;-73
2022/12/22 04:30:08;;;;;;;176.32;44.50;;;;;;;;;;4987835;28;99520;-74
2022/12/22 04:32:34;;;;;;;210.55;46.53;;;;;;;;;;4987784;28;100272;-74
2022/12/22 04:35:01;;;;;;;162.88;43.65;;;;;;;;;;4987972;28;98280;-72
2022/12/22 04:37:27;;;;;;;158.40;42.05;;;;;;;;;;4987497;28;100309;-74
2022/12/22 04:39:54;;;;;;;162.18;44.67;;;;;;;;;;4988149;28;100402;-73
2022/12/22 04:42:20;;;;;;;154.88;44.88;;;;;;;;;;4993622;28;98287;-73
2022/12/22 04:44:46;;;;;;;126.93;40.70;;;;;;;;;;5007306;28;98757;-74
2022/12/22 04:47:13;;;;;;;144.25;42.97;;;;;;;;;;5007974;28;99626;-73
2022/12/22 04:49:40;;;;;;;126.18;41.40;;;;;;;;;;5011190;28;98254;-73
2022/12/22 04:52:06;;;;;;;193.75;44.17;;;;;;;;;;5007562;28;99136;-73
2022/12/22 04:54:32;;;;;;;134.50;41.63;;;;;;;;;;5007626;28;98250;-72
2022/12/22 04:56:59;;;;;;;126.10;40.40;;;;;;;;;;5001035;28;99486;-73
2022/12/22 04:59:25;;;;;;;138.93;42.20;;;;;;;;;;4986363;28;99362;-73
2022/12/22 05:01:52;;;;;;;165.23;42.30;;;;;;;;;;4988028;28;98270;-73
2022/12/22 05:04:18;;;;;;;120.60;38.00;;;;;;;;;;4988189;28;98504;-73
2022/12/22 05:06:49;;;;;;;166.38;42.72;;;;;;;;;;4986329;28;100489;-72
2022/12/22 05:09:15;;;;;;;185.75;41.80;;;;;;;;;;4987746;28;98285;-73
2022/12/22 05:11:42;;;;;;;163.35;40.90;;;;;;;;;;4990060;28;98505;-72
2022/12/22 05:14:08;;;;;;;163.60;43.88;;;;;;;;;;4987708;28;98274;-72
2022/12/22 05:16:34;;;;;;;152.90;40.95;;;;;;;;;;4989081;27;98439;-73
2022/12/22 05:19:01;;;;;;;154.50;41.20;;;;;;;;;;4986474;28;100427;-72
2022/12/22 05:21:28;;;;;;;166.10;40.47;;;;;;;;;;4987679;28;98635;-73
2022/12/22 05:23:54;;;;;;;166.23;42.47;;;;;;;;;;4986976;28;99333;-72
2022/12/22 05:26:20;;;;;;;164.50;40.78;;;;;;;;;;4986833;28;99980;-72
2022/12/22 05:28:47;;;;;;;141.82;39.38;;;;;;;;;;4987864;28;98879;-73
2022/12/22 05:31:15;;;;;;;130.07;39.78;;;;;;;;;;4987650;28;98615;-73
2022/12/22 05:33:42;;;;;;;153.65;41.08;;;;;;;;;;4989978;28;101068;-73
2022/12/22 05:36:08;;;;;;;124.22;39.10;;;;;;;;;;4987770;28;99340;-73
2022/12/22 05:38:35;;;;;;;152.85;38.70;;;;;;;;;;4986579;28;99040;-73
2022/12/22 05:41:01;;;;;;;112.40;36.05;;;;;;;;;;4987089;28;98376;-73
2022/12/22 05:43:30;;;;;;;118.03;35.88;;;;;;;;;;4986697;28;98564;-72
2022/12/22 05:45:59;;;;;;;110.47;34.65;;;;;;;;;;5003382;28;99091;-72
2022/12/22 05:48:26;;;;;;;122.53;36.05;;;;;;;;;;5005570;28;98373;-73
2022/12/22 05:50:58;;;;;;;;;;;;;;;;;;5007179;28;99356;-72
2022/12/22 05:53:25;;;;;;;78.90;29.98;;;;;;;;;;5009267;28;129740;-73
2022/12/22 05:55:51;;;;;;;95.85;32.03;;;;;;;;;;5006044;28;98727;-73
2022/12/22 05:58:18;;;;;;;83.15;30.50;;;;;;;;;;5006631;28;99091;-73
2022/12/22 06:00:44;;;;;;;85.65;30.58;;;;;;;;;;4997473;28;98131;-73
2022/12/22 06:03:11;;;;;;;104.03;31.75;;;;;;;;;;4985987;28;98769;-73
2022/12/22 06:05:37;;;;;;;80.65;29.98;;;;;;;;;;4986521;28;99023;-73
2022/12/22 06:08:03;;;;;;;89.63;30.65;;;;;;;;;;4986055;28;98762;-73
2022/12/22 06:10:30;;;;;;;81.10;30.00;;;;;;;;;;4989858;28;98755;-73
2022/12/22 06:12:56;;;;;;;81.80;29.77;;;;;;;;;;4989873;28;98968;-74
2022/12/22 06:15:22;;;;;;;103.82;32.58;;;;;;;;;;4993300;28;98787;-74
2022/12/22 06:17:49;;;;;;;100.60;32.38;;;;;;;;;;4990585;28;98852;-74
2022/12/22 06:20:15;;;;;;;92.55;32.15;;;;;;;;;;4990182;28;98272;-73
2022/12/22 06:22:42;;;;;;;107.70;34.30;;;;;;;;;;4989457;28;99700;-74
2022/12/22 06:25:08;;;;;;;89.60;33.05;;;;;;;;;;5002123;28;100090;-73
2022/12/22 06:27:43;;;;;;;97.40;34.58;;;;;;;;;;5010169;28;99178;-73
2022/12/22 06:30:09;;;;;;;101.95;34.08;;;;;;;;;;5010312;28;98428;-73
2022/12/22 06:32:36;;;;;;;96.03;35.03;;;;;;;;;;5009955;28;100178;-74
2022/12/22 06:35:03;;;;;;;84.97;30.08;;;;;;;;;;5010848;28;98336;-74
2022/12/22 06:37:30;;;;;;;93.75;34.42;;;;;;;;;;5011483;28;98898;-74
2022/12/22 06:39:57;;;;;;;98.13;35.60;;;;;;;;;;5010080;28;98539;-74
2022/12/22 06:45:08;;;;;;;90.70;34.83;;;;;;;;;;5005973;28;100125;-74
2022/12/22 06:47:35;;;;;;;89.95;35.90;;;;;;;;;;4978447;28;98285;-74
2022/12/22 06:50:01;;;;;;;102.55;36.65;;;;;;;;;;4988713;28;98887;-74
2022/12/22 06:52:27;;;;;;;87.40;34.63;;;;;;;;;;4983697;28;98914;-74
2022/12/22 06:54:54;;;;;;;83.22;35.10;;;;;;;;;;4970336;28;98240;-74
2022/12/22 06:57:20;;;;;;;95.20;35.05;;;;;;;;;;4969229;28;99587;-74
2022/12/22 06:59:46;;;;;;;83.57;34.03;;;;;;;;;;4993029;28;101240;-74
2022/12/22 07:02:20;;;;;;;79.50;31.02;;;;;;;;;;4997122;28;99738;-74
2022/12/22 07:04:47;;;;;;;85.03;34.47;;;;;;;;;;4980233;28;99884;-74
2022/12/22 07:07:13;;;;;;;61.55;27.88;;;;;;;;;;4992249;28;98992;-73
2022/12/22 07:09:40;;;;;;;71.43;30.98;;;;;;;;;;4989251;28;99619;-74
2022/12/22 07:12:06;;;;;;;72.65;31.45;;;;;;;;;;4993531;28;99388;-73
2022/12/22 07:14:32;;;;;;;89.05;34.92;;;;;;;;;;4989543;28;99618;-74
2022/12/22 07:16:59;;;;;;;85.35;34.05;;;;;;;;;;4988368;28;99527;-74
2022/12/22 07:19:25;;;;;;;88.13;34.85;;;;;;;;;;4984916;28;100117;-74
2022/12/22 07:21:52;;;;;;;103.68;36.03;;;;;;;;;;4988752;28;98305;-77
2022/12/22 07:24:22;;;;;;;94.05;35.63;;;;;;;;;;4986648;28;99946;-73
2022/12/22 07:26:49;;;;;;;69.88;31.33;;;;;;;;;;4977229;28;98316;-74
2022/12/22 07:29:16;;;;;;;86.53;34.70;;;;;;;;;;4975229;28;99501;-73
2022/12/22 07:31:42;;;;;;;84.75;34.40;;;;;;;;;;4973176;28;99155;-74
2022/12/22 07:34:10;;;;;;;77.47;31.60;;;;;;;;;;4995760;28;98663;-73
2022/12/22 07:36:36;;;;;;;66.50;28.73;;;;;;;;;;4989602;28;99600;-75
2022/12/22 07:39:03;;;;;;;62.35;25.70;;;;;;;;;;4988042;28;100554;-74
2022/12/22 07:44:15;;;;;;;88.63;30.67;;;;;;;;;;4981665;28;98700;-74
2022/12/22 07:46:41;;;;;;;92.68;30.85;;;;;;;;;;4986884;28;98377;-76
2022/12/22 07:51:54;;;;;;;89.40;26.80;;;;;;;;;;4974796;28;98633;-74
2022/12/22 07:54:21;;;;;;;80.05;27.90;;;;;;;;;;4988109;28;98724;-74
2022/12/22 07:56:47;;;;;;;74.82;26.95;;;;;;;;;;4987958;28;98863;-73
2022/12/22 07:59:14;;;;;;;72.00;25.50;;;;;;;;;;4988384;28;98995;-74
2022/12/22 08:01:41;;;;;;;72.93;25.20;;;;;;;;;;4986374;28;98308;-74
2022/12/22 08:04:08;;;;;;;72.43;24.67;;;;;;;;;;4991832;28;98429;-74
2022/12/22 08:06:35;;;;;;;75.70;26.30;;;;;;;;;;4988025;28;99040;-75
2022/12/22 08:09:02;;;;;;;83.03;26.25;;;;;;;;;;4988058;28;99563;-74
2022/12/22 08:11:29;;;;;;;90.30;26.38;;;;;;;;;;4987931;28;100024;-73
2022/12/22 08:13:55;;;;;;;84.00;25.65;;;;;;;;;;4988569;28;98345;-75
2022/12/22 08:16:27;;;;;;;66.53;22.60;;;;;;;;;;4987264;28;98678;-74
2022/12/22 08:18:53;;;;;;;62.75;20.98;;;;;;;;;;4988244;28;99282;-74
2022/12/22 08:21:20;;;;;;;60.28;20.48;;;;;;;;;;4987982;28;98179;-73
2022/12/22 08:23:46;;;;;;;65.75;21.30;;;;;;;;;;4983159;28;100083;-74
2022/12/22 08:26:15;;;;;;;73.35;22.92;;;;;;;;;;4984979;28;100266;-74
2022/12/22 08:28:51;;;;;;;75.65;21.55;;;;;;;;;;4987140;28;99566;-74
2022/12/22 08:31:18;;;;;;;68.95;21.15;;;;;;;;;;4980889;28;100114;-74
2022/12/22 08:33:44;;;;;;;71.47;22.70;;;;;;;;;;4982859;28;98356;-74
2022/12/22 08:36:11;;;;;;;68.32;21.42;;;;;;;;;;4987290;28;99554;-74
2022/12/22 08:38:38;;;;;;;70.97;21.83;;;;;;;;;;4987305;28;99337;-74
2022/12/22 08:41:06;;;;;;;64.25;20.15;;;;;;;;;;4987292;28;98469;-74
2022/12/22 08:43:32;;;;;;;52.55;19.02;;;;;;;;;;4987022;28;98652;-73
2022/12/22 08:45:58;;;;;;;60.75;20.42;;;;;;;;;;4988252;28;100183;-74
2022/12/22 08:48:25;;;;;;;54.35;19.77;;;;;;;;;;4984475;28;100213;-73
2022/12/22 08:50:51;;;;;;;50.55;18.75;;;;;;;;;;4979229;28;99950;-74
2022/12/22 08:53:18;;;;;;;47.60;18.52;;;;;;;;;;4986355;28;98930;-73
2022/12/22 08:56:04;;;;;;;60.85;18.10;;;;;;;;;;4988143;28;100425;-74
2022/12/22 08:58:31;;;;;;;55.17;18.30;;;;;;;;;;4985694;28;99891;-75
2022/12/22 09:00:57;;;;;;;58.28;17.58;;;;;;;;;;4985547;28;100369;-74
2022/12/22 09:03:23;;;;;;;56.25;17.60;;;;;;;;;;4985550;28;98824;-75
2022/12/22 09:05:50;;;;;;;50.60;17.48;;;;;;;;;;4983797;28;99994;-74
2022/12/22 09:08:16;;;;;;;51.80;17.42;;;;;;;;;;4969354;28;98366;-74
2022/12/22 09:10:43;;;;;;;41.22;15.93;;;;;;;;;;4974399;28;99445;-75
2022/12/22 09:13:10;;;;;;;47.92;16.35;;;;;;;;;;4987205;28;98377;-75
2022/12/22 09:15:37;;;;;;;43.47;15.98;;;;;;;;;;4987630;28;98726;-75
2022/12/22 09:18:03;;;;;;;48.05;16.42;;;;;;;;;;4986802;28;99262;-74
2022/12/22 09:20:30;;;;;;;37.53;15.43;;;;;;;;;;4983416;28;100057;-75
2022/12/22 09:22:58;;;;;;;52.88;16.40;;;;;;;;;;4987487;28;99622;-75
2022/12/22 09:25:24;;;;;;;49.22;16.13;;;;;;;;;;4986336;28;99333;-75
2022/12/22 09:27:50;;;;;;;50.45;17.23;;;;;;;;;;4987563;28;98242;-75
2022/12/22 09:30:17;;;;;;;59.70;17.55;;;;;;;;;;4986856;28;99748;-75
2022/12/22 09:32:43;;;;;;;52.22;16.50;;;;;;;;;;4971167;28;100137;-75
2022/12/22 09:35:09;;;;;;;44.40;15.50;;;;;;;;;;4967880;28;99502;-76
2022/12/22 09:37:36;;;;;;;45.53;15.98;;;;;;;;;;4971948;28;100114;-75
2022/12/22 09:40:02;;;;;;;54.47;15.65;;;;;;;;;;4986625;28;98256;-75
2022/12/22 09:42:31;;;;;;;42.83;15.00;;;;;;;;;;4986204;28;99787;-76
2022/12/22 09:44:57;;;;;;;45.17;13.68;;;;;;;;;;4975963;28;99940;-76
2022/12/22 09:47:32;;;;;;;35.20;13.70;;;;;;;;;;4984006;28;98326;-76
2022/12/22 09:49:58;;;;;;;44.25;13.55;;;;;;;;;;4972123;28;99421;-75
2022/12/22 09:52:33;;;;;;;34.20;13.38;;;;;;;;;;4971575;28;99707;-76
2022/12/22 09:55:01;;;;;;;37.03;13.73;;;;;;;;;;4971278;28;98155;-75
2022/12/22 09:57:31;;;;;;;33.38;12.75;;;;;;;;;;4985724;28;99134;-74
2022/12/22 10:00:05;;;;;;;26.23;11.73;;;;;;;;;;4984656;28;99052;-75
2022/12/22 10:02:56;;;;;;;27.95;11.73;;;;;;;;;;4985752;28;98300;-75
2022/12/22 10:05:37;;;;;;;24.20;10.68;;;;;;;;;;4975747;28;99352;-79
2022/12/22 10:08:09;;;;;;;27.55;11.05;;;;;;;;;;4984038;28;99952;-79
2022/12/22 10:10:35;;;;;;;22.37;11.00;;;;;;;;;;4985322;28;100204;-75
2022/12/22 10:13:03;;;;;;;32.38;12.27;;;;;;;;;;4986888;28;99092;-76
2022/12/22 10:15:36;;;;;;;21.65;11.35;;;;;;;;;;4987430;28;98362;-75
2022/12/22 10:18:13;;;;;;;24.45;11.27;;;;;;;;;;4985808;28;98908;-75
2022/12/22 10:20:41;;;;;;;27.55;11.68;;;;;;;;;;4985762;28;98217;-76
2022/12/22 10:23:17;;;;;;;23.90;13.35;;;;;;;;;;4983141;28;100080;-75
2022/12/22 10:25:56;;;;;;;28.38;12.45;;;;;;;;;;4985660;28;99034;-75
2022/12/22 10:28:45;;;;;;;20.58;10.85;;;;;;;;;;4985561;28;98416;-75
2022/12/22 10:31:15;;;;;;;29.45;11.68;;;;;;;;;;4986503;28;99486;-75
2022/12/22 10:33:43;;;;;;;27.08;11.68;;;;;;;;;;4985572;28;100888;-75
2022/12/22 10:36:14;;;;;;;23.73;12.85;;;;;;;;;;4986316;28;98780;-76
2022/12/22 10:38:55;;;;;;;19.05;11.48;;;;;;;;;;4987899;28;99291;-76
2022/12/22 10:41:23;;;;;;;20.48;11.45;;;;;;;;;;4988814;28;98555;-75
2022/12/22 10:43:51;;;;;;;17.65;10.32;;;;;;;;;;4988627;28;98818;-75
2022/12/22 10:46:37;;;;;;;20.10;10.93;;;;;;;;;;4984136;28;100159;-74
2022/12/22 10:49:09;;;;;;;20.05;12.27;;;;;;;;;;4987536;27;98181;-75
2022/12/22 10:51:35;;;;;;;18.98;11.07;;;;;;;;;;4985487;28;99451;-75
2022/12/22 10:54:02;;;;;;;17.70;11.10;;;;;;;;;;4986705;28;99724;-75
2022/12/22 10:56:30;;;;;;;24.50;11.75;;;;;;;;;;4985753;28;100177;-75
2022/12/22 10:59:18;;;;;;;22.02;11.85;;;;;;;;;;4975639;28;98859;-75
2022/12/22 11:01:45;;;;;;;16.27;9.82;;;;;;;;;;4973163;28;100200;-75
2022/12/22 11:04:16;;;;;;;28.45;12.50;;;;;;;;;;4977042;28;98618;-75
2022/12/22 11:06:43;;;;;;;18.05;11.23;;;;;;;;;;4988900;28;99926;-76
2022/12/22 11:09:10;;;;;;;23.63;11.48;;;;;;;;;;4986808;28;98896;-87
2022/12/22 11:12:17;;;;;;;41.58;24.67;;;;;;;;;;4974391;28;99721;-76
2022/12/22 11:14:49;;;;;;;21.17;11.43;;;;;;;;;;4981878;27;100038;-75
2022/12/22 11:17:20;;;;;;;16.58;9.88;;;;;;;;;;4986077;28;99578;-75
2022/12/22 11:20:05;;;;;;;20.30;10.35;;;;;;;;;;4983863;28;101341;-75
2022/12/22 11:22:38;;;;;;;17.05;9.10;;;;;;;;;;4988993;28;99945;-77
2022/12/22 11:25:22;;;;;;;14.38;8.40;;;;;;;;;;4991319;28;98381;-76
2022/12/22 11:27:54;;;;;;;16.98;9.48;;;;;;;;;;4987101;28;99944;-76
2022/12/22 11:30:33;;;;;;;18.33;8.93;;;;;;;;;;4988787;28;98380;-75
2022/12/22 11:33:00;;;;;;;12.45;8.95;;;;;;;;;;4987138;28;99478;-77
2022/12/22 11:35:36;;;;;;;19.23;9.38;;;;;;;;;;4988372;28;99516;-76
2022/12/22 11:38:13;;;;;;;21.20;9.98;;;;;;;;;;4986680;28;98820;-76
2022/12/22 11:40:39;;;;;;;21.60;11.07;;;;;;;;;;4985644;28;98553;-76
2022/12/22 11:43:25;;;;;;;23.27;11.45;;;;;;;;;;4977550;28;99574;-77
2022/12/22 11:46:06;;;;;;;15.90;10.82;;;;;;;;;;4968549;28;98569;-76
2022/12/22 11:48:54;;;;;;;20.00;11.75;;;;;;;;;;4978307;28;100183;-74
2022/12/22 11:51:46;;;;;;;17.63;11.70;;;;;;;;;;4978389;28;98338;-75
2022/12/22 11:54:31;;;;;;;24.30;12.07;;;;;;;;;;4971851;28;99133;-75
2022/12/22 11:57:13;;;;;;;18.23;11.63;;;;;;;;;;4985836;28;101447;-77
2022/12/22 11:59:48;;;;;;;17.00;10.77;;;;;;;;;;4987176;28;98602;-77
2022/12/22 12:02:33;;;;;;;18.65;11.43;;;;;;;;;;4983896;28;99344;-76
2022/12/22 12:05:10;;;;;;;23.15;12.35;;;;;;;;;;4980810;28;98955;-75
2022/12/22 12:07:38;;;;;;;19.63;11.70;;;;;;;;;;4983277;28;98744;-73
2022/12/22 12:10:04;;;;;;;15.68;10.70;;;;;;;;;;4982807;28;99641;-73
2022/12/22 12:12:33;;;;;;;16.25;10.10;;;;;;;;;;4989320;28;98457;-73
2022/12/22 12:15:02;;;;;;;14.27;9.52;;;;;;;;;;4987790;28;99018;-76
2022/12/22 12:17:44;;;;;;;16.08;9.18;;;;;;;;;;4987891;28;99492;-75
2022/12/22 12:20:17;;;;;;;16.50;8.48;;;;;;;;;;4988875;28;98303;-76
2022/12/22 12:22:47;;;;;;;7.65;6.03;;;;;;;;;;4987596;28;98528;-73
2022/12/22 12:25:37;;;;;;;14.23;7.00;;;;;;;;;;4988732;28;99247;-74
2022/12/22 12:28:26;;;;;;;10.32;5.15;;;;;;;;;;4986994;28;100765;-73
2022/12/22 12:30:54;;;;;;;13.27;6.07;;;;;;;;;;4986116;28;98579;-76
2022/12/22 12:33:26;;;;;;;6.75;5.57;;;;;;;;;;4991296;28;100187;-72
2022/12/22 12:36:12;;;;;;;11.73;5.78;;;;;;;;;;4987165;28;99215;-75
2022/12/22 12:38:53;;;;;;;7.68;5.68;;;;;;;;;;4986408;28;99882;-76
2022/12/22 12:41:41;;;;;;;14.13;6.25;;;;;;;;;;4977567;28;99728;-76
2022/12/22 12:44:11;;;;;;;18.00;7.20;;;;;;;;;;4967921;28;98908;-75
2022/12/22 12:46:49;;;;;;;17.42;7.28;;;;;;;;;;4970967;28;99874;-75
2022/12/22 12:49:34;;;;;;;15.85;9.98;;;;;;;;;;4988259;28;99354;-75
2022/12/22 12:52:08;;;;;;;19.90;11.65;;;;;;;;;;4989371;27;98466;-75
2022/12/22 12:54:36;;;;;;;21.25;13.00;;;;;;;;;;4987880;28;99000;-76
2022/12/22 12:57:05;;;;;;;17.40;12.55;;;;;;;;;;4990214;28;98890;-75
2022/12/22 12:59:38;;;;;;;17.80;13.27;;;;;;;;;;4987588;28;100448;-75
2022/12/22 13:02:24;;;;;;;25.00;14.82;;;;;;;;;;4987960;28;98184;-75
2022/12/22 13:05:03;;;;;;;25.88;15.40;;;;;;;;;;4987131;28;99849;-74
2022/12/22 13:07:48;;;;;;;20.35;13.20;;;;;;;;;;4986551;28;99962;-75
2022/12/22 13:10:19;;;;;;;22.17;14.98;;;;;;;;;;4987291;28;98847;-76
2022/12/22 13:12:50;;;;;;;26.92;16.88;;;;;;;;;;4987385;28;99450;-75
2022/12/22 13:15:34;;;;;;;34.00;19.45;;;;;;;;;;4987995;28;100381;-74
2022/12/22 13:18:20;;;;;;;30.67;17.80;;;;;;;;;;4975215;28;98522;-75
2022/12/22 13:20:52;;;;;;;26.17;17.70;;;;;;;;;;4970679;28;98582;-74
2022/12/22 13:23:18;;;;;;;28.77;17.90;;;;;;;;;;4975892;28;98305;-74
2022/12/22 13:25:51;;;;;;;26.83;16.75;;;;;;;;;;4985323;28;99456;-75
2022/12/22 13:28:20;;;;;;;28.75;17.27;;;;;;;;;;4987527;28;100104;-74
2022/12/22 13:30:52;;;;;;;31.00;19.13;;;;;;;;;;4987447;28;98523;-74
2022/12/22 13:33:21;;;;;;;27.88;18.40;;;;;;;;;;4987233;28;98682;-75
2022/12/22 13:35:48;;;;;;;30.30;18.35;;;;;;;;;;4987061;28;100357;-74
2022/12/22 13:38:32;;;;;;;33.45;19.38;;;;;;;;;;4986646;28;98622;-74
2022/12/22 13:41:01;;;;;;;31.98;18.33;;;;;;;;;;4989064;28;99580;-75
2022/12/22 13:43:28;;;;;;;30.08;19.40;;;;;;;;;;4989576;28;98154;-74
2022/12/22 13:45:56;;;;;;;31.38;20.02;;;;;;;;;;4984462;28;101457;-74
2022/12/22 13:48:29;;;;;;;29.02;19.08;;;;;;;;;;4976595;28;99116;-74
2022/12/22 13:50:57;;;;;;;28.70;19.40;;;;;;;;;;4967205;28;98128;-73
2022/12/22 13:53:23;;;;;;;33.15;19.50;;;;;;;;;;4983899;28;99586;-73
2022/12/22 13:56:15;;;;;;;35.03;20.85;;;;;;;;;;4986464;28;100298;-74
2022/12/22 13:58:45;;;;;;;32.15;19.55;;;;;;;;;;4986527;28;98440;-74
2022/12/22 14:01:14;;;;;;;38.15;21.20;;;;;;;;;;4984752;28;99412;-73
2022/12/22 14:03:57;;;;;;;33.92;21.30;;;;;;;;;;4985292;28;100075;-73
2022/12/22 14:06:28;;;;;;;39.17;21.67;;;;;;;;;;4968586;28;98331;-73
2022/12/22 14:09:10;;;;;;;35.42;21.55;;;;;;;;;;4971101;28;98844;-73
2022/12/22 14:11:36;;;;;;;34.67;21.20;;;;;;;;;;4986112;27;98265;-72
2022/12/22 14:14:07;;;;;;;38.42;21.50;;;;;;;;;;4980833;28;99643;-73
2022/12/22 14:16:34;;;;;;;34.97;21.92;;;;;;;;;;4982146;28;100101;-72
2022/12/22 14:19:01;;;;;;;38.30;22.33;;;;;;;;;;4990537;28;98381;-73
2022/12/22 14:21:27;;;;;;;34.10;22.45;;;;;;;;;;4985167;28;99698;-73
2022/12/22 14:23:54;;;;;;;41.80;23.83;;;;;;;;;;4983916;28;100080;-73
2022/12/22 14:26:23;;;;;;;37.58;23.30;;;;;;;;;;4986893;27;98327;-74
2022/12/22 14:28:52;;;;;;;36.45;23.77;;;;;;;;;;4985461;28;100376;-74
2022/12/22 14:31:19;;;;;;;43.50;23.75;;;;;;;;;;4987893;28;98373;-73
2022/12/22 14:33:55;;;;;;;43.35;25.35;;;;;;;;;;4977079;28;99690;-74
2022/12/22 14:36:23;;;;;;;38.75;24.13;;;;;;;;;;4976895;28;100289;-74
2022/12/22 14:38:51;;;;;;;40.47;24.30;;;;;;;;;;4987388;28;98297;-73
2022/12/22 14:41:40;;;;;;;38.22;24.55;;;;;;;;;;4985124;28;100262;-73
2022/12/22 14:44:18;;;;;;;38.80;26.38;;;;;;;;;;4989110;28;100320;-77
2022/12/22 14:46:46;;;;;;;44.55;26.13;;;;;;;;;;4982153;28;99314;-75
2022/12/22 14:49:13;;;;;;;49.03;28.13;;;;;;;;;;4975061;28;98517;-74
2022/12/22 14:51:41;;;;;;;47.83;26.63;;;;;;;;;;4981978;28;98375;-74
2022/12/22 14:54:17;;;;;;;43.20;26.63;;;;;;;;;;4986596;28;98817;-74
2022/12/22 14:56:48;;;;;;;40.72;25.13;;;;;;;;;;4988547;28;100073;-74
2022/12/22 14:59:25;;;;;;;47.67;26.33;;;;;;;;;;4985106;28;98164;-75
2022/12/22 15:01:55;;;;;;;38.85;25.08;;;;;;;;;;4981331;28;99429;-75
2022/12/22 15:04:22;;;;;;;38.80;25.90;;;;;;;;;;4983982;28;99066;-76
2022/12/22 15:06:49;;;;;;;41.92;26.58;;;;;;;;;;4987790;28;98217;-76
2022/12/22 15:09:15;;;;;;;47.42;27.73;;;;;;;;;;4974434;28;98944;-77
2022/12/22 15:11:44;;;;;;;44.53;26.70;;;;;;;;;;4988567;28;100259;-75
2022/12/22 15:14:12;;;;;;;44.70;27.48;;;;;;;;;;4982730;28;100219;-76
2022/12/22 15:16:38;;;;;;;42.78;29.42;;;;;;;;;;4980941;28;99874;-75
2022/12/22 15:19:05;;;;;;;48.53;27.10;;;;;;;;;;4985124;28;99734;-75
2022/12/22 15:21:32;;;;;;;48.28;28.95;;;;;;;;;;4969762;28;99749;-75
2022/12/22 15:23:58;;;;;;;44.92;27.98;;;;;;;;;;4977179;28;99380;-74
2022/12/22 15:26:25;;;;;;;42.83;28.23;;;;;;;;;;4985480;28;98375;-76
2022/12/22 15:28:51;;;;;;;50.10;28.77;;;;;;;;;;4986543;28;98833;-76
2022/12/22 15:31:18;;;;;;;47.15;29.58;;;;;;;;;;4987847;27;98933;-76
2022/12/22 15:33:44;;;;;;;46.72;29.52;;;;;;;;;;4991957;28;98273;-77
2022/12/22 15:36:11;;;;;;;52.10;33.53;;;;;;;;;;4988044;28;99949;-74
2022/12/22 15:38:38;;;;;;;55.60;32.35;;;;;;;;;;4986509;28;98176;-76
2022/12/22 15:41:05;;;;;;;43.63;29.80;;;;;;;;;;4983409;28;98726;-74
2022/12/22 15:43:34;;;;;;;57.58;37.83;;;;;;;;;;4983327;28;99794;-74
2022/12/22 15:46:20;;;;;;;60.67;33.70;;;;;;;;;;4981950;28;98568;-76
2022/12/22 15:48:47;;;;;;;47.45;31.88;;;;;;;;;;4988847;28;99677;-76
2022/12/22 15:51:17;;;;;;;60.95;34.72;;;;;;;;;;4986985;28;100169;-74
2022/12/22 15:53:44;;;;;;;55.08;34.33;;;;;;;;;;4985985;28;98582;-76
2022/12/22 15:56:13;;;;;;;60.70;36.00;;;;;;;;;;4992048;28;99535;-75
2022/12/22 15:58:43;;;;;;;;;;;;;;;;;;4979019;28;99289;-75
2022/12/22 16:01:10;;;;;;;66.35;37.00;;;;;;;;;;4986723;28;128860;-75
2022/12/22 16:03:37;;;;;;;69.88;38.45;;;;;;;;;;4978851;27;99087;-77
2022/12/22 16:06:04;;;;;;;72.75;39.42;;;;;;;;;;4985907;28;98581;-76
2022/12/22 16:08:32;;;;;;;76.03;39.67;;;;;;;;;;4988124;28;99490;-76
2022/12/22 16:10:58;;;;;;;75.70;44.65;;;;;;;;;;4983071;28;99479;-80
2022/12/22 16:13:26;;;;;;;89.28;54.78;;;;;;;;;;4987350;28;98272;-79
2022/12/22 16:15:54;;;;;;;94.82;51.40;;;;;;;;;;4980839;28;98800;-79
2022/12/22 16:18:21;;;;;;;82.90;45.08;;;;;;;;;;4989379;28;100090;-78
2022/12/22 16:20:49;;;;;;;89.93;44.08;;;;;;;;;;4986660;28;99475;-78
2022/12/22 16:23:17;;;;;;;89.38;44.45;;;;;;;;;;4985615;28;99125;-78
2022/12/22 16:25:44;;;;;;;84.57;43.30;;;;;;;;;;4985566;28;99650;-78
2022/12/22 16:28:16;;;;;;;85.43;43.30;;;;;;;;;;4985350;28;100570;-80
2022/12/22 16:30:42;;;;;;;97.50;44.30;;;;;;;;;;4978620;28;100111;-78
2022/12/22 16:33:12;;;;;;;84.38;42.72;;;;;;;;;;4973936;28;99506;-78
2022/12/22 16:35:39;;;;;;;96.05;44.08;;;;;;;;;;4983917;28;98898;-74
2022/12/22 16:38:05;;;;;;;91.13;43.10;;;;;;;;;;4990521;28;100084;-76
2022/12/22 16:40:38;;;;;;;94.68;41.95;;;;;;;;;;4984274;28;98639;-74
2022/12/22 16:43:24;;;;;;;89.53;41.90;;;;;;;;;;4984165;28;99283;-78
2022/12/22 16:46:11;;;;;;;86.75;43.45;;;;;;;;;;4988228;28;98277;-77
2022/12/22 16:48:39;;;;;;;93.90;43.08;;;;;;;;;;4985631;28;99720;-75
2022/12/22 16:51:06;;;;;;;70.53;37.80;;;;;;;;;;4983520;28;100184;-76
2022/12/22 16:53:32;;;;;;;83.03;39.38;;;;;;;;;;4976305;28;98665;-77
2022/12/22 16:55:59;;;;;;;84.40;39.67;;;;;;;;;;4982364;28;98639;-77
2022/12/22 16:58:25;;;;;;;84.35;40.88;;;;;;;;;;4972245;28;98977;-77
2022/12/22 17:00:52;;;;;;;87.63;40.70;;;;;;;;;;4978733;28;98297;-78
2022/12/22 17:03:21;;;;;;;89.90;42.08;;;;;;;;;;4981692;28;99935;-77
2022/12/22 17:05:52;;;;;;;95.65;42.47;;;;;;;;;;4987432;28;98265;-77
2022/12/22 17:08:23;;;;;;;84.70;38.83;;;;;;;;;;4982571;28;99395;-77
2022/12/22 17:10:50;;;;;;;88.20;42.63;;;;;;;;;;4983849;28;100371;-77
2022/12/22 17:13:17;;;;;;;90.60;40.65;;;;;;;;;;4987550;28;98834;-77
2022/12/22 17:15:44;;;;;;;74.22;37.05;;;;;;;;;;4981121;28;99523;-76
2022/12/22 17:18:14;;;;;;;82.13;37.95;;;;;;;;;;4980674;28;99993;-77
2022/12/22 17:20:40;;;;;;;80.07;38.58;;;;;;;;;;4977571;28;98478;-76
2022/12/22 17:23:20;;;;;;;73.53;35.35;;;;;;;;;;4987418;28;99457;-77
2022/12/22 17:25:46;;;;;;;61.67;33.60;;;;;;;;;;4983597;28;99264;-81
2022/12/22 17:28:13;;;;;;;67.60;33.65;;;;;;;;;;4975619;28;99087;-78
2022/12/22 17:30:39;;;;;;;66.00;33.13;;;;;;;;;;4978106;28;100144;-79
2022/12/22 17:33:11;;;;;;;69.55;32.17;;;;;;;;;;4985683;28;98331;-83
2022/12/22 17:35:38;;;;;;;65.00;30.88;;;;;;;;;;4971069;28;99629;-75
2022/12/22 17:38:04;;;;;;;68.10;33.38;;;;;;;;;;4976985;28;99798;-76
2022/12/22 17:40:33;;;;;;;58.88;29.92;;;;;;;;;;4974653;28;98333;-76
2022/12/22 17:42:59;;;;;;;60.42;30.48;;;;;;;;;;4981704;28;99549;-77
2022/12/22 17:45:25;;;;;;;73.82;33.55;;;;;;;;;;4987212;28;99298;-77
2022/12/22 17:47:52;;;;;;;66.40;32.63;;;;;;;;;;4984991;28;99328;-77
2022/12/22 17:50:19;;;;;;;64.65;31.20;;;;;;;;;;4979237;28;99935;-77
2022/12/22 17:52:46;;;;;;;70.95;31.98;;;;;;;;;;4985195;28;98342;-78
2022/12/22 17:55:20;;;;;;;63.60;31.45;;;;;;;;;;4985182;28;99505;-75
2022/12/22 17:58:11;;;;;;;71.57;30.73;;;;;;;;;;4974252;28;100054;-77
2022/12/22 18:00:38;;;;;;;74.28;34.60;;;;;;;;;;4967062;28;98836;-78
2022/12/22 18:03:04;;;;;;;91.93;40.72;;;;;;;;;;4968275;28;98417;-76
2022/12/22 18:05:36;;;;;;;98.90;49.03;;;;;;;;;;4982021;28;100254;-76
2022/12/22 18:08:02;;;;;;;74.78;34.60;;;;;;;;;;4984141;28;98266;-76
2022/12/22 18:10:30;;;;;;;83.75;35.22;;;;;;;;;;4980187;28;99846;-76
2022/12/22 18:12:58;;;;;;;78.57;36.28;;;;;;;;;;4988686;28;98621;-77